Terminal Aerodrome Forecast
Issued by NWS

Home | Current Version | Previous Version | Text Only | Print | Product List | Glossary On
Versions: 1 2 3 4 5 6 7 8 9 10 11 12 13 14 15 16 17 18 19
000
FTUS44 KCRP 050528
TAFALI
TAF
KALI 050528Z 0506/0606 15008KT P6SM SCT015
     FM050800 15008KT 4SM BR SCT015
      TEMPO 0509/0513 4SM BR BKN015
     FM051500 16015G22KT P6SM SCT035
     FM060100 14008KT P6SM FEW025=

USA.gov is the U.S. government's official web portal to all federal, state and local government web resources and services.